Time;durP1;ratioP1;P1;durP2;ratioP2;P2;SDS_P1;SDS_P2;PMS_P1;PMS_P2;Temp;Humidity;BMP_temperature;BMP_pressure;BME280_temperature;BME280_humidity;BME280_pressure;Samples;Min_cycle;Max_cycle;Signal;HPM_P1;HPM_P2
2023/11/22 00:00:17;;;;;;;2.80;2.55;;;;;;;;;;2096333;28;20067;-64
2023/11/22 00:01:36;;;;;;;3.30;3.10;;;;;;;;;;2094384;28;20111;-65
2023/11/22 00:02:55;;;;;;;5.90;2.80;;;;;;;;;;2096184;28;20037;-65
2023/11/22 00:04:14;;;;;;;3.33;2.60;;;;;;;;;;2093237;28;20064;-65
2023/11/22 00:05:33;;;;;;;3.13;2.83;;;;;;;;;;2094136;28;20032;-64
2023/11/22 00:06:52;;;;;;;3.83;2.97;;;;;;;;;;2095214;28;20040;-64
2023/11/22 00:08:11;;;;;;;4.38;3.08;;;;;;;;;;2096582;28;20075;-64
2023/11/22 00:09:30;;;;;;;3.20;2.80;;;;;;;;;;2094589;28;20028;-65
2023/11/22 00:10:49;;;;;;;2.85;2.65;;;;;;;;;;2094832;28;20033;-64
2023/11/22 00:12:08;;;;;;;3.05;2.67;;;;;;;;;;2094342;28;20489;-64
2023/11/22 00:13:27;;;;;;;6.53;2.97;;;;;;;;;;2084495;28;20037;-65
2023/11/22 00:14:47;;;;;;;3.20;3.00;;;;;;;;;;2092916;28;20111;-65
2023/11/22 00:16:08;;;;;;;3.58;3.28;;;;;;;;;;2092749;28;20066;-65
2023/11/22 00:17:28;;;;;;;3.47;2.97;;;;;;;;;;2093466;28;20511;-65
2023/11/22 00:18:47;;;;;;;4.38;3.15;;;;;;;;;;2095789;28;20036;-65
2023/11/22 00:20:07;;;;;;;3.60;3.30;;;;;;;;;;2087314;28;20037;-65
2023/11/22 00:21:26;;;;;;;4.03;3.35;;;;;;;;;;2090893;28;20033;-65
2023/11/22 00:22:45;;;;;;;3.20;2.83;;;;;;;;;;2094357;28;20151;-65
2023/11/22 00:24:04;;;;;;;3.55;3.33;;;;;;;;;;2094488;28;20101;-64
2023/11/22 00:25:24;;;;;;;4.85;3.30;;;;;;;;;;2096378;28;20033;-64
2023/11/22 00:26:43;;;;;;;3.30;3.00;;;;;;;;;;2095885;28;20476;-64
2023/11/22 00:28:02;;;;;;;3.30;3.00;;;;;;;;;;2094156;28;20072;-65
2023/11/22 00:29:21;;;;;;;3.35;3.03;;;;;;;;;;2094489;28;20388;-65
2023/11/22 00:30:40;;;;;;;3.75;3.35;;;;;;;;;;2095983;28;20025;-65
2023/11/22 00:31:59;;;;;;;3.33;3.03;;;;;;;;;;2094010;28;20490;-65
2023/11/22 00:33:19;;;;;;;4.55;3.47;;;;;;;;;;2095130;28;20401;-62
2023/11/22 00:34:38;;;;;;;4.13;3.28;;;;;;;;;;2097876;28;20389;-65
2023/11/22 00:35:58;;;;;;;3.50;3.22;;;;;;;;;;2097133;28;20032;-64
2023/11/22 00:37:17;;;;;;;3.15;2.85;;;;;;;;;;2093453;28;20531;-64
2023/11/22 00:38:37;;;;;;;3.50;3.20;;;;;;;;;;2094822;28;20029;-64
2023/11/22 00:39:56;;;;;;;4.25;3.85;;;;;;;;;;2091986;28;20025;-64
2023/11/22 00:41:15;;;;;;;5.65;3.17;;;;;;;;;;2096852;28;20397;-64
2023/11/22 00:42:35;;;;;;;3.38;3.08;;;;;;;;;;2093312;28;20021;-65
2023/11/22 00:43:54;;;;;;;3.50;3.20;;;;;;;;;;2093612;28;20025;-64
2023/11/22 00:45:14;;;;;;;3.45;3.00;;;;;;;;;;2095022;28;20021;-65
2023/11/22 00:46:32;;;;;;;4.68;3.30;;;;;;;;;;2095704;28;20394;-64
2023/11/22 00:47:52;;;;;;;3.80;3.38;;;;;;;;;;2093634;28;20040;-64
2023/11/22 00:49:11;;;;;;;4.60;3.65;;;;;;;;;;2093643;28;20025;-64
2023/11/22 00:50:30;;;;;;;3.33;3.03;;;;;;;;;;2095040;28;20032;-64
2023/11/22 00:51:50;;;;;;;3.17;2.88;;;;;;;;;;2086969;28;20056;-65
2023/11/22 00:53:09;;;;;;;3.33;2.75;;;;;;;;;;2082261;28;20414;-65
2023/11/22 00:54:28;;;;;;;3.50;3.20;;;;;;;;;;2086904;28;20380;-64
2023/11/22 00:55:47;;;;;;;3.80;3.55;;;;;;;;;;2088865;28;20033;-64
2023/11/22 00:57:06;;;;;;;3.63;3.33;;;;;;;;;;2089614;28;20040;-65
2023/11/22 00:58:25;;;;;;;3.70;3.40;;;;;;;;;;2087677;28;20029;-64
2023/11/22 00:59:44;;;;;;;3.42;3.20;;;;;;;;;;2087712;28;20076;-65
2023/11/22 01:01:03;;;;;;;4.65;3.60;;;;;;;;;;2092443;28;20033;-65
2023/11/22 01:02:22;;;;;;;3.38;3.17;;;;;;;;;;2094012;28;20091;-65
2023/11/22 01:03:41;;;;;;;3.40;3.08;;;;;;;;;;2097172;28;20481;-64
2023/11/22 01:05:00;;;;;;;3.58;3.28;;;;;;;;;;2093507;28;20054;-65
2023/11/22 01:06:19;;;;;;;5.05;3.70;;;;;;;;;;2092841;28;20123;-64
2023/11/22 01:07:38;;;;;;;5.35;3.90;;;;;;;;;;2095289;28;20033;-64
2023/11/22 01:08:57;;;;;;;3.65;3.38;;;;;;;;;;2094486;28;20099;-65
2023/11/22 01:10:16;;;;;;;3.30;3.10;;;;;;;;;;2096698;28;20041;-65
2023/11/22 01:11:35;;;;;;;3.78;3.47;;;;;;;;;;2082747;28;20033;-64
2023/11/22 01:12:54;;;;;;;3.20;2.90;;;;;;;;;;2091857;28;20440;-64
2023/11/22 01:14:13;;;;;;;4.88;3.50;;;;;;;;;;2095464;28;20044;-65
2023/11/22 01:15:32;;;;;;;4.00;3.53;;;;;;;;;;2093616;28;20036;-64
2023/11/22 01:16:51;;;;;;;4.60;4.07;;;;;;;;;;2094782;28;20052;-66
2023/11/22 01:18:10;;;;;;;4.55;3.83;;;;;;;;;;2084033;28;20029;-65
2023/11/22 01:19:29;;;;;;;4.68;4.35;;;;;;;;;;2092617;28;20064;-64
2023/11/22 01:20:49;;;;;;;4.38;3.97;;;;;;;;;;2095534;28;20068;-64
2023/11/22 01:22:07;;;;;;;5.72;3.88;;;;;;;;;;2092740;28;20407;-65
2023/11/22 01:23:30;;;;;;;4.07;3.72;;;;;;;;;;2094348;28;20417;-65
2023/11/22 01:24:49;;;;;;;4.40;4.00;;;;;;;;;;2093910;28;20040;-65
2023/11/22 01:26:08;;;;;;;4.30;3.95;;;;;;;;;;2094565;28;20032;-64
2023/11/22 01:27:27;;;;;;;5.50;4.13;;;;;;;;;;2094660;28;20385;-67
2023/11/22 01:28:46;;;;;;;5.13;4.40;;;;;;;;;;2094473;28;21266;-67
2023/11/22 01:30:09;;;;;;;4.80;3.97;;;;;;;;;;2097090;28;20040;-65
2023/11/22 01:31:28;;;;;;;4.28;3.88;;;;;;;;;;2097013;28;20036;-64
2023/11/22 01:32:49;;;;;;;4.75;3.67;;;;;;;;;;2095353;28;20028;-65
2023/11/22 01:34:08;;;;;;;4.00;3.70;;;;;;;;;;2094427;28;20033;-65
2023/11/22 01:35:30;;;;;;;4.07;3.72;;;;;;;;;;2093979;28;20025;-64
2023/11/22 01:36:52;;;;;;;3.63;3.03;;;;;;;;;;2092515;28;20024;-64
2023/11/22 01:38:11;;;;;;;4.95;4.50;;;;;;;;;;2094435;28;20029;-65
2023/11/22 01:39:31;;;;;;;4.57;4.18;;;;;;;;;;2095893;28;20021;-65
2023/11/22 01:40:51;;;;;;;5.18;3.97;;;;;;;;;;2094918;28;20024;-64
2023/11/22 01:42:10;;;;;;;4.40;3.95;;;;;;;;;;2092066;28;20481;-64
2023/11/22 01:43:29;;;;;;;5.00;4.50;;;;;;;;;;2090317;28;20040;-65
2023/11/22 01:44:48;;;;;;;6.40;4.18;;;;;;;;;;2092703;28;20056;-65
2023/11/22 01:46:08;;;;;;;4.53;4.13;;;;;;;;;;2094258;28;20546;-65
2023/11/22 01:47:28;;;;;;;4.68;4.28;;;;;;;;;;2095522;28;20477;-65
2023/11/22 01:48:47;;;;;;;5.13;4.30;;;;;;;;;;2094362;28;20044;-64
2023/11/22 01:50:07;;;;;;;5.47;4.35;;;;;;;;;;2096546;28;20036;-65
2023/11/22 01:51:26;;;;;;;4.80;4.40;;;;;;;;;;2095581;28;20033;-65
2023/11/22 01:52:45;;;;;;;4.53;4.03;;;;;;;;;;2092813;28;20032;-65
2023/11/22 01:54:06;;;;;;;5.70;4.45;;;;;;;;;;2093635;28;20029;-65
2023/11/22 01:55:25;;;;;;;4.57;4.18;;;;;;;;;;2094947;28;20028;-64
2023/11/22 01:56:45;;;;;;;4.38;4.00;;;;;;;;;;2094275;28;20032;-65
2023/11/22 01:58:04;;;;;;;5.72;4.43;;;;;;;;;;2094778;28;20032;-65
2023/11/22 01:59:26;;;;;;;4.28;3.88;;;;;;;;;;2095362;28;20496;-65
2023/11/22 02:00:52;;;;;;;4.30;3.90;;;;;;;;;;2095870;28;20020;-65
2023/11/22 02:02:11;;;;;;;5.78;4.07;;;;;;;;;;2091507;28;20056;-65
2023/11/22 02:03:30;;;;;;;7.05;5.03;;;;;;;;;;2093373;28;20036;-65
2023/11/22 02:04:49;;;;;;;4.63;4.22;;;;;;;;;;2092542;28;20036;-65
2023/11/22 02:06:09;;;;;;;4.82;4.43;;;;;;;;;;2095853;28;20106;-64
2023/11/22 02:07:28;;;;;;;4.72;4.25;;;;;;;;;;2095844;28;20036;-65
2023/11/22 02:08:47;;;;;;;5.22;4.63;;;;;;;;;;2093384;28;20508;-64
2023/11/22 02:10:07;;;;;;;4.60;4.20;;;;;;;;;;2093218;28;20068;-65
2023/11/22 02:11:27;;;;;;;4.38;3.95;;;;;;;;;;2094305;28;20033;-65
2023/11/22 02:12:46;;;;;;;5.65;4.38;;;;;;;;;;2085266;28;20067;-66
2023/11/22 02:14:07;;;;;;;4.43;4.07;;;;;;;;;;2090123;28;20032;-65
2023/11/22 02:15:25;;;;;;;5.93;4.07;;;;;;;;;;2093678;28;20106;-65
2023/11/22 02:16:44;;;;;;;4.65;4.20;;;;;;;;;;2095648;28;20393;-65
2023/11/22 02:18:05;;;;;;;5.95;4.00;;;;;;;;;;2094713;28;20033;-65
2023/11/22 02:19:25;;;;;;;4.50;4.20;;;;;;;;;;2091042;28;20501;-65
2023/11/22 02:20:44;;;;;;;4.32;3.60;;;;;;;;;;2092509;28;20177;-65
2023/11/22 02:22:03;;;;;;;5.10;4.18;;;;;;;;;;2094682;28;20500;-65
2023/11/22 02:23:22;;;;;;;4.63;4.20;;;;;;;;;;2094551;28;20048;-65
2023/11/22 02:24:41;;;;;;;4.78;3.80;;;;;;;;;;2093542;28;20032;-65
2023/11/22 02:26:00;;;;;;;6.72;4.60;;;;;;;;;;2093158;28;20032;-65
2023/11/22 02:27:19;;;;;;;4.18;3.70;;;;;;;;;;2094223;28;20119;-65
2023/11/22 02:28:38;;;;;;;4.07;3.78;;;;;;;;;;2094328;28;20044;-65
2023/11/22 02:29:57;;;;;;;4.50;4.03;;;;;;;;;;2094485;28;20028;-65
2023/11/22 02:31:17;;;;;;;4.15;3.75;;;;;;;;;;2091631;28;20064;-65
2023/11/22 02:32:36;;;;;;;5.50;4.07;;;;;;;;;;2091089;28;20425;-64
2023/11/22 02:33:55;;;;;;;4.22;3.92;;;;;;;;;;2092858;28;20421;-64
2023/11/22 02:35:16;;;;;;;4.38;3.97;;;;;;;;;;2093677;28;20525;-65
2023/11/22 02:36:35;;;;;;;6.30;4.10;;;;;;;;;;2092205;28;20148;-65
2023/11/22 02:37:54;;;;;;;5.00;4.45;;;;;;;;;;2096547;28;20086;-64
2023/11/22 02:39:14;;;;;;;8.23;5.45;;;;;;;;;;2093728;28;21113;-65
2023/11/22 02:40:32;;;;;;;7.35;5.00;;;;;;;;;;2092561;28;20032;-64
2023/11/22 02:41:51;;;;;;;5.85;5.20;;;;;;;;;;2091965;28;20388;-63
2023/11/22 02:43:11;;;;;;;5.40;4.60;;;;;;;;;;2086060;28;20061;-64
2023/11/22 02:44:29;;;;;;;5.40;4.90;;;;;;;;;;2090136;28;20033;-65
2023/11/22 02:45:48;;;;;;;6.18;5.57;;;;;;;;;;2092378;28;20032;-64
2023/11/22 02:47:07;;;;;;;8.07;5.28;;;;;;;;;;2094325;28;20514;-64
2023/11/22 02:48:27;;;;;;;7.95;5.38;;;;;;;;;;2095004;28;20028;-65
2023/11/22 02:49:45;;;;;;;5.72;5.13;;;;;;;;;;2094170;28;20040;-65
2023/11/22 02:51:06;;;;;;;5.93;4.60;;;;;;;;;;2094375;28;20032;-64
2023/11/22 02:52:26;;;;;;;5.07;4.68;;;;;;;;;;2092696;28;20114;-64
2023/11/22 02:53:46;;;;;;;5.20;4.70;;;;;;;;;;2094675;28;20025;-64
2023/11/22 02:55:05;;;;;;;5.47;4.95;;;;;;;;;;2095778;28;20024;-64
2023/11/22 02:56:25;;;;;;;4.60;4.30;;;;;;;;;;2094562;28;20436;-64
2023/11/22 02:57:45;;;;;;;4.90;4.43;;;;;;;;;;2086053;28;20503;-65
2023/11/22 02:59:04;;;;;;;4.85;4.38;;;;;;;;;;2083934;28;20021;-65
2023/11/22 03:00:25;;;;;;;5.10;4.70;;;;;;;;;;2091736;28;20350;-65
2023/11/22 03:01:45;;;;;;;5.10;4.70;;;;;;;;;;2093403;28;20484;-65
2023/11/22 03:03:08;;;;;;;4.97;4.07;;;;;;;;;;2095304;28;20033;-64
2023/11/22 03:04:28;;;;;;;;;;;;;;;;;;2094034;28;20461;-65
2023/11/22 03:05:47;;;;;;;4.43;3.85;;;;;;;;;;2095438;28;19913;-64
2023/11/22 03:07:06;;;;;;;4.63;4.25;;;;;;;;;;2096577;28;20025;-64
2023/11/22 03:08:25;;;;;;;5.15;4.80;;;;;;;;;;2092519;28;20036;-65
2023/11/22 03:09:45;;;;;;;5.43;4.93;;;;;;;;;;2097121;28;20033;-65
2023/11/22 03:11:04;;;;;;;8.23;5.82;;;;;;;;;;2087806;28;20040;-64
2023/11/22 03:12:23;;;;;;;6.35;5.85;;;;;;;;;;2091432;28;20050;-64
2023/11/22 03:13:43;;;;;;;6.72;6.13;;;;;;;;;;2096908;28;20358;-64
2023/11/22 03:15:02;;;;;;;6.13;5.63;;;;;;;;;;2087009;28;20033;-65
2023/11/22 03:16:22;;;;;;;6.30;5.80;;;;;;;;;;2092441;28;20029;-65
2023/11/22 03:17:41;;;;;;;6.10;5.65;;;;;;;;;;2097376;28;20028;-65
2023/11/22 03:19:01;;;;;;;5.85;5.35;;;;;;;;;;2087256;28;20021;-67
2023/11/22 03:20:21;;;;;;;6.93;6.32;;;;;;;;;;2093431;28;20029;-65
2023/11/22 03:21:40;;;;;;;5.90;5.40;;;;;;;;;;2096990;28;20072;-65
2023/11/22 03:23:00;;;;;;;6.15;5.65;;;;;;;;;;2092560;28;20024;-65
2023/11/22 03:24:18;;;;;;;6.03;5.50;;;;;;;;;;2090677;28;20119;-64
2023/11/22 03:25:37;;;;;;;6.10;5.63;;;;;;;;;;2097640;28;20036;-65
2023/11/22 03:26:58;;;;;;;7.05;5.70;;;;;;;;;;2097006;28;20037;-65
2023/11/22 03:28:17;;;;;;;6.53;5.95;;;;;;;;;;2090010;28;20033;-64
2023/11/22 03:29:37;;;;;;;6.95;5.57;;;;;;;;;;2095423;28;20041;-64
2023/11/22 03:30:56;;;;;;;5.70;5.20;;;;;;;;;;2093428;28;20036;-64
2023/11/22 03:32:16;;;;;;;6.90;6.30;;;;;;;;;;2087469;28;20037;-65
2023/11/22 03:33:35;;;;;;;5.80;5.30;;;;;;;;;;2090169;28;20025;-65
2023/11/22 03:34:54;;;;;;;6.63;6.03;;;;;;;;;;2097694;28;20060;-65
2023/11/22 03:36:13;;;;;;;6.05;5.55;;;;;;;;;;2097511;28;20032;-64
2023/11/22 03:37:32;;;;;;;8.13;6.75;;;;;;;;;;2087569;28;20025;-65
2023/11/22 03:38:51;;;;;;;6.75;6.05;;;;;;;;;;2079567;28;20033;-64
2023/11/22 03:40:10;;;;;;;5.80;5.40;;;;;;;;;;2092579;28;20025;-65
2023/11/22 03:41:28;;;;;;;6.68;5.88;;;;;;;;;;2094626;28;20796;-65
2023/11/22 03:42:47;;;;;;;6.32;5.75;;;;;;;;;;2095982;28;20051;-65
2023/11/22 03:44:09;;;;;;;6.50;5.90;;;;;;;;;;2095867;28;20036;-65
2023/11/22 03:45:28;;;;;;;6.60;5.25;;;;;;;;;;2097370;28;20028;-64
2023/11/22 03:46:47;;;;;;;6.82;6.13;;;;;;;;;;2096594;28;20136;-65
2023/11/22 03:48:06;;;;;;;6.03;5.53;;;;;;;;;;2093038;28;20032;-65
2023/11/22 03:49:26;;;;;;;7.60;6.68;;;;;;;;;;2087665;28;20053;-64
2023/11/22 03:50:44;;;;;;;8.85;6.18;;;;;;;;;;2091437;28;20052;-65
2023/11/22 03:52:03;;;;;;;7.28;6.68;;;;;;;;;;2095108;28;20068;-64
2023/11/22 03:53:22;;;;;;;7.25;6.38;;;;;;;;;;2096299;28;20025;-65
2023/11/22 03:54:44;;;;;;;6.95;6.28;;;;;;;;;;2082712;28;20029;-65
2023/11/22 03:56:03;;;;;;;6.22;5.72;;;;;;;;;;2089653;28;20033;-65
2023/11/22 03:57:22;;;;;;;7.75;6.88;;;;;;;;;;2096371;28;20056;-65
2023/11/22 03:58:41;;;;;;;7.40;6.80;;;;;;;;;;2095237;28;20096;-65
2023/11/22 04:00:00;;;;;;;9.20;7.35;;;;;;;;;;2094916;28;20024;-65
2023/11/22 04:01:20;;;;;;;6.80;6.20;;;;;;;;;;2096226;28;20024;-65
2023/11/22 04:02:39;;;;;;;7.38;6.63;;;;;;;;;;2094687;28;20021;-66
2023/11/22 04:03:59;;;;;;;7.68;6.68;;;;;;;;;;2085590;28;20230;-64
2023/11/22 04:05:19;;;;;;;6.82;6.22;;;;;;;;;;2093333;28;20020;-65
2023/11/22 04:06:38;;;;;;;7.03;6.40;;;;;;;;;;2095694;28;20392;-65
2023/11/22 04:07:57;;;;;;;6.45;5.95;;;;;;;;;;2096724;28;20029;-65
2023/11/22 04:09:16;;;;;;;7.18;6.57;;;;;;;;;;2095210;28;20128;-66
2023/11/22 04:10:35;;;;;;;7.05;5.80;;;;;;;;;;2096643;28;20029;-65
2023/11/22 04:11:55;;;;;;;6.35;5.75;;;;;;;;;;2091613;28;20041;-68
2023/11/22 04:13:14;;;;;;;5.93;5.40;;;;;;;;;;2094149;28;20025;-65
2023/11/22 04:14:33;;;;;;;6.78;5.75;;;;;;;;;;2094542;28;20040;-65
2023/11/22 04:15:52;;;;;;;5.28;4.57;;;;;;;;;;2095372;28;20024;-65
2023/11/22 04:17:11;;;;;;;4.88;4.57;;;;;;;;;;2095782;28;20025;-65
2023/11/22 04:18:31;;;;;;;5.40;4.90;;;;;;;;;;2093891;28;20028;-65
2023/11/22 04:19:50;;;;;;;5.88;4.40;;;;;;;;;;2093909;28;20032;-65
2023/11/22 04:21:09;;;;;;;5.07;4.68;;;;;;;;;;2094751;28;20032;-64
2023/11/22 04:22:28;;;;;;;5.15;4.43;;;;;;;;;;2092489;28;20516;-64
2023/11/22 04:23:48;;;;;;;4.55;4.20;;;;;;;;;;2085367;28;20112;-64
2023/11/22 04:25:08;;;;;;;5.15;4.75;;;;;;;;;;2092885;28;20028;-65
2023/11/22 04:26:27;;;;;;;4.38;4.07;;;;;;;;;;2094817;28;20037;-64
2023/11/22 04:27:46;;;;;;;4.22;3.83;;;;;;;;;;2096589;28;20033;-65
2023/11/22 04:29:06;;;;;;;4.95;3.90;;;;;;;;;;2085799;28;20041;-66
2023/11/22 04:30:25;;;;;;;4.22;3.83;;;;;;;;;;2091448;28;20141;-65
2023/11/22 04:31:44;;;;;;;5.03;4.70;;;;;;;;;;2093242;28;20036;-67
2023/11/22 04:33:03;;;;;;;6.70;4.15;;;;;;;;;;2093925;28;20044;-65
2023/11/22 04:34:21;;;;;;;4.28;3.88;;;;;;;;;;2091958;28;20028;-65
2023/11/22 04:35:41;;;;;;;4.53;4.10;;;;;;;;;;2096783;28;20028;-65
2023/11/22 04:37:00;;;;;;;4.25;3.95;;;;;;;;;;2095371;28;20013;-66
2023/11/22 04:38:19;;;;;;;4.50;3.97;;;;;;;;;;2094727;28;20389;-65
2023/11/22 04:39:38;;;;;;;4.13;3.83;;;;;;;;;;2096016;28;20025;-65
2023/11/22 04:40:57;;;;;;;4.50;4.20;;;;;;;;;;2093359;28;20036;-65
2023/11/22 04:42:16;;;;;;;4.38;4.07;;;;;;;;;;2094264;28;20028;-65
2023/11/22 04:43:36;;;;;;;5.20;4.80;;;;;;;;;;2093871;28;20037;-65
2023/11/22 04:44:55;;;;;;;4.78;4.38;;;;;;;;;;2095514;28;20056;-65
2023/11/22 04:46:14;;;;;;;4.25;3.95;;;;;;;;;;2096891;28;20029;-65
2023/11/22 04:47:33;;;;;;;4.97;4.57;;;;;;;;;;2087637;28;20053;-65
2023/11/22 04:48:52;;;;;;;4.43;4.13;;;;;;;;;;2089703;28;20111;-65
2023/11/22 04:50:11;;;;;;;4.57;4.28;;;;;;;;;;2094089;28;20033;-64
2023/11/22 04:51:32;;;;;;;4.22;3.90;;;;;;;;;;2096633;28;20431;-64
2023/11/22 04:52:51;;;;;;;5.00;3.90;;;;;;;;;;2095339;28;20021;-64
2023/11/22 04:54:10;;;;;;;4.50;4.10;;;;;;;;;;2096338;28;20037;-64
2023/11/22 04:55:29;;;;;;;4.45;4.05;;;;;;;;;;2094594;28;20024;-64
2023/11/22 04:56:47;;;;;;;4.30;3.97;;;;;;;;;;2091068;28;20028;-65
2023/11/22 04:58:07;;;;;;;4.40;4.00;;;;;;;;;;2090273;28;20032;-64
2023/11/22 04:59:25;;;;;;;3.90;3.58;;;;;;;;;;2095460;28;20044;-64
2023/11/22 05:00:45;;;;;;;3.95;3.58;;;;;;;;;;2096059;28;20377;-64
2023/11/22 05:02:04;;;;;;;4.07;3.78;;;;;;;;;;2087457;28;20509;-64
2023/11/22 05:03:23;;;;;;;4.00;3.70;;;;;;;;;;2093132;28;20058;-65
2023/11/22 05:04:42;;;;;;;4.22;3.63;;;;;;;;;;2095310;28;20397;-64
2023/11/22 05:06:01;;;;;;;4.78;3.60;;;;;;;;;;2091447;28;20071;-65
2023/11/22 05:07:20;;;;;;;4.10;3.80;;;;;;;;;;2094524;28;20500;-64
2023/11/22 05:08:39;;;;;;;4.70;4.30;;;;;;;;;;2094542;28;20032;-64
2023/11/22 05:09:58;;;;;;;4.50;4.20;;;;;;;;;;2097209;28;20586;-64
2023/11/22 05:11:17;;;;;;;5.00;4.60;;;;;;;;;;2095941;28;20028;-65
2023/11/22 05:12:36;;;;;;;4.90;4.50;;;;;;;;;;2094570;28;20063;-64
2023/11/22 05:13:55;;;;;;;6.60;4.97;;;;;;;;;;2094975;28;20103;-64
2023/11/22 05:15:14;;;;;;;5.57;5.07;;;;;;;;;;2095341;28;20068;-64
2023/11/22 05:16:33;;;;;;;4.85;4.43;;;;;;;;;;2094160;28;20468;-65
2023/11/22 05:17:52;;;;;;;5.50;5.10;;;;;;;;;;2093613;28;20369;-64
2023/11/22 05:19:11;;;;;;;4.63;4.22;;;;;;;;;;2093709;28;20037;-64
2023/11/22 05:20:30;;;;;;;5.55;5.05;;;;;;;;;;2086957;28;20462;-64
2023/11/22 05:21:49;;;;;;;6.38;4.50;;;;;;;;;;2092285;28;20409;-64
2023/11/22 05:23:08;;;;;;;5.40;4.40;;;;;;;;;;2094347;28;20493;-64
2023/11/22 05:24:27;;;;;;;5.18;4.68;;;;;;;;;;2096784;28;20032;-64
2023/11/22 05:25:46;;;;;;;4.30;4.00;;;;;;;;;;2093877;28;20070;-64
2023/11/22 05:27:05;;;;;;;4.20;3.80;;;;;;;;;;2095733;28;20029;-64
2023/11/22 05:28:28;;;;;;;4.15;3.70;;;;;;;;;;2097055;28;20032;-64
2023/11/22 05:29:47;;;;;;;4.45;3.65;;;;;;;;;;2095954;28;20119;-64
2023/11/22 05:31:06;;;;;;;4.20;3.90;;;;;;;;;;2096616;28;20025;-64
2023/11/22 05:32:28;;;;;;;3.45;3.15;;;;;;;;;;2095424;28;20064;-64
2023/11/22 05:33:47;;;;;;;3.40;3.20;;;;;;;;;;2097072;28;20025;-64
2023/11/22 05:35:09;;;;;;;3.70;3.40;;;;;;;;;;2095545;28;20032;-65
2023/11/22 05:36:28;;;;;;;5.00;3.20;;;;;;;;;;2092612;28;20033;-64
2023/11/22 05:37:48;;;;;;;3.15;2.90;;;;;;;;;;2094927;28;20029;-65
2023/11/22 05:39:06;;;;;;;3.70;3.20;;;;;;;;;;2092995;28;20021;-66
2023/11/22 05:40:26;;;;;;;3.70;3.40;;;;;;;;;;2094261;28;20074;-63
2023/11/22 05:41:44;;;;;;;3.35;3.15;;;;;;;;;;2093082;28;20059;-64
2023/11/22 05:43:04;;;;;;;4.35;3.95;;;;;;;;;;2093849;28;20071;-65
2023/11/22 05:44:25;;;;;;;3.97;3.67;;;;;;;;;;2094241;28;20561;-64
2023/11/22 05:45:48;;;;;;;3.67;3.38;;;;;;;;;;2083284;28;20266;-64
2023/11/22 05:47:08;;;;;;;4.47;3.53;;;;;;;;;;2081604;28;20049;-65
2023/11/22 05:48:26;;;;;;;3.13;2.92;;;;;;;;;;2081918;28;20064;-65
2023/11/22 05:49:45;;;;;;;3.72;3.42;;;;;;;;;;2084010;28;20041;-64
2023/11/22 05:51:04;;;;;;;3.42;3.13;;;;;;;;;;2084286;28;20037;-64
2023/11/22 05:52:24;;;;;;;4.18;3.45;;;;;;;;;;2087361;28;20465;-64
2023/11/22 05:53:43;;;;;;;3.83;3.53;;;;;;;;;;2087182;28;20037;-64
2023/11/22 05:55:05;;;;;;;4.55;3.42;;;;;;;;;;2086611;28;20032;-64
2023/11/22 05:56:24;;;;;;;4.00;3.70;;;;;;;;;;2083823;28;20036;-64
2023/11/22 05:57:43;;;;;;;3.20;2.95;;;;;;;;;;2084204;28;20029;-64
2023/11/22 05:59:02;;;;;;;4.00;3.65;;;;;;;;;;2084701;28;20070;-64
2023/11/22 06:00:21;;;;;;;4.00;3.70;;;;;;;;;;2086678;28;20036;-64
2023/11/22 06:01:40;;;;;;;5.10;3.90;;;;;;;;;;2082295;28;20033;-65
2023/11/22 06:02:59;;;;;;;4.15;3.53;;;;;;;;;;2085554;28;20055;-64
2023/11/22 06:04:18;;;;;;;3.92;3.63;;;;;;;;;;2087483;28;20029;-64
2023/11/22 06:05:37;;;;;;;4.30;3.90;;;;;;;;;;2086092;28;20037;-65
2023/11/22 06:06:56;;;;;;;3.67;3.38;;;;;;;;;;2084488;28;20029;-65
2023/11/22 06:08:15;;;;;;;4.00;3.58;;;;;;;;;;2086234;28;20017;-64
2023/11/22 06:09:36;;;;;;;3.55;3.35;;;;;;;;;;2086168;28;20250;-64
2023/11/22 06:10:57;;;;;;;4.25;3.85;;;;;;;;;;2086635;28;20036;-64
2023/11/22 06:12:15;;;;;;;3.85;3.55;;;;;;;;;;2085345;28;20067;-64
2023/11/22 06:13:34;;;;;;;5.22;4.07;;;;;;;;;;2078812;28;20397;-64
2023/11/22 06:14:53;;;;;;;4.25;3.95;;;;;;;;;;2081920;28;20036;-65
2023/11/22 06:16:12;;;;;;;4.32;4.03;;;;;;;;;;2081403;28;20041;-65
2023/11/22 06:17:31;;;;;;;5.63;4.57;;;;;;;;;;2087323;28;20059;-65
2023/11/22 06:18:50;;;;;;;5.43;5.03;;;;;;;;;;2082467;28;20164;-65
2023/11/22 06:20:09;;;;;;;4.78;4.47;;;;;;;;;;2085144;28;20393;-65
2023/11/22 06:21:29;;;;;;;5.07;4.65;;;;;;;;;;2086808;28;20029;-64
2023/11/22 06:22:48;;;;;;;4.60;4.20;;;;;;;;;;2086336;28;20025;-64
2023/11/22 06:24:09;;;;;;;4.80;4.50;;;;;;;;;;2087124;28;20140;-65
2023/11/22 06:25:28;;;;;;;5.28;4.88;;;;;;;;;;2086820;28;20029;-65
2023/11/22 06:26:47;;;;;;;4.90;4.50;;;;;;;;;;2084142;28;20029;-65
2023/11/22 06:28:06;;;;;;;5.10;4.70;;;;;;;;;;2087080;28;20029;-65
2023/11/22 06:29:25;;;;;;;5.80;5.30;;;;;;;;;;2086314;28;20083;-63
2023/11/22 06:30:44;;;;;;;5.82;4.50;;;;;;;;;;2083963;28;20029;-63
2023/11/22 06:32:02;;;;;;;6.50;5.20;;;;;;;;;;2081950;28;20029;-64
2023/11/22 06:33:22;;;;;;;5.10;4.70;;;;;;;;;;2086922;28;20033;-65
2023/11/22 06:34:41;;;;;;;5.13;4.70;;;;;;;;;;2083955;28;20029;-64
2023/11/22 06:36:00;;;;;;;5.25;4.85;;;;;;;;;;2082985;28;20072;-64
2023/11/22 06:37:20;;;;;;;6.38;5.00;;;;;;;;;;2085780;28;20033;-65
2023/11/22 06:38:40;;;;;;;5.47;4.95;;;;;;;;;;2085382;28;20025;-65
2023/11/22 06:39:58;;;;;;;5.68;5.18;;;;;;;;;;2085594;28;20438;-65
2023/11/22 06:41:17;;;;;;;5.45;4.97;;;;;;;;;;2084347;28;20037;-65
2023/11/22 06:42:36;;;;;;;5.20;4.80;;;;;;;;;;2084220;28;20045;-64
2023/11/22 06:43:55;;;;;;;5.75;5.22;;;;;;;;;;2084031;28;20397;-65
2023/11/22 06:45:14;;;;;;;54.72;7.97;;;;;;;;;;2083256;28;20116;-65
2023/11/22 06:46:33;;;;;;;81.05;8.48;;;;;;;;;;2087624;28;20679;-65
2023/11/22 06:47:52;;;;;;;32.97;7.10;;;;;;;;;;2093390;28;20044;-64
2023/11/22 06:49:11;;;;;;;72.40;8.38;;;;;;;;;;2092666;28;20385;-64
2023/11/22 06:50:30;;;;;;;60.20;7.95;;;;;;;;;;2094129;28;20103;-65
2023/11/22 06:51:49;;;;;;;56.58;9.00;;;;;;;;;;2094640;28;20032;-65
2023/11/22 06:53:08;;;;;;;66.43;8.48;;;;;;;;;;2092692;28;20500;-64
2023/11/22 06:54:27;;;;;;;44.67;9.90;;;;;;;;;;2093713;28;20040;-65
2023/11/22 06:55:46;;;;;;;85.45;10.63;;;;;;;;;;2093947;28;20033;-65
2023/11/22 06:57:05;;;;;;;72.82;10.98;;;;;;;;;;2094150;28;20029;-65
2023/11/22 06:58:24;;;;;;;48.05;9.45;;;;;;;;;;2095278;28;20068;-66
2023/11/22 06:59:43;;;;;;;93.80;12.82;;;;;;;;;;2095908;28;20493;-65
2023/11/22 07:01:02;;;;;;;64.55;10.63;;;;;;;;;;2090798;28;20037;-66
2023/11/22 07:02:21;;;;;;;54.30;10.82;;;;;;;;;;2092623;28;20032;-63
2023/11/22 07:03:40;;;;;;;45.78;11.05;;;;;;;;;;2093416;28;20048;-65
2023/11/22 07:04:59;;;;;;;48.90;11.52;;;;;;;;;;2086843;28;20029;-64
2023/11/22 07:06:18;;;;;;;35.85;10.85;;;;;;;;;;2091632;28;20548;-65
2023/11/22 07:07:38;;;;;;;29.77;11.02;;;;;;;;;;2094866;28;20397;-65
2023/11/22 07:08:58;;;;;;;40.92;11.40;;;;;;;;;;2096367;28;20028;-65
2023/11/22 07:10:20;;;;;;;23.13;10.80;;;;;;;;;;2094889;28;20024;-65
2023/11/22 07:11:39;;;;;;;22.65;11.68;;;;;;;;;;2094732;28;20040;-65
2023/11/22 07:12:58;;;;;;;19.95;11.05;;;;;;;;;;2093568;28;20081;-65
2023/11/22 07:14:17;;;;;;;18.58;12.15;;;;;;;;;;2094935;28;20062;-64
2023/11/22 07:15:36;;;;;;;19.38;12.07;;;;;;;;;;2094380;28;20115;-65
2023/11/22 07:16:56;;;;;;;28.38;12.93;;;;;;;;;;2093900;28;20096;-65
2023/11/22 07:18:16;;;;;;;18.70;12.35;;;;;;;;;;2085083;28;20025;-65
2023/11/22 07:19:37;;;;;;;20.88;12.07;;;;;;;;;;2081634;28;20040;-64
2023/11/22 07:20:56;;;;;;;23.65;13.30;;;;;;;;;;2090103;28;20497;-65
2023/11/22 07:22:15;;;;;;;24.40;13.18;;;;;;;;;;2091170;28;20040;-64
2023/11/22 07:23:35;;;;;;;23.00;13.18;;;;;;;;;;2094776;28;20037;-65
2023/11/22 07:25:01;;;;;;;23.42;13.80;;;;;;;;;;2094877;28;20580;-65
2023/11/22 07:26:20;;;;;;;23.38;13.40;;;;;;;;;;2094222;28;20036;-64
2023/11/22 07:27:39;;;;;;;26.45;13.98;;;;;;;;;;2094935;28;20068;-65
2023/11/22 07:28:58;;;;;;;22.13;13.68;;;;;;;;;;2089688;28;20032;-65
2023/11/22 07:30:19;;;;;;;25.70;14.02;;;;;;;;;;2095132;28;20053;-65
2023/11/22 07:31:39;;;;;;;25.98;14.98;;;;;;;;;;2095903;28;20024;-65
2023/11/22 07:33:01;;;;;;;24.65;15.25;;;;;;;;;;2094972;28;20029;-65
2023/11/22 07:34:20;;;;;;;28.20;15.55;;;;;;;;;;2086504;28;20037;-65
2023/11/22 07:35:39;;;;;;;26.48;14.98;;;;;;;;;;2089121;28;20028;-65
2023/11/22 07:36:58;;;;;;;23.08;13.85;;;;;;;;;;2094800;28;20436;-65
2023/11/22 07:38:17;;;;;;;28.08;15.50;;;;;;;;;;2087262;28;20037;-65
2023/11/22 07:39:38;;;;;;;24.77;14.55;;;;;;;;;;2090359;28;20032;-64
2023/11/22 07:40:57;;;;;;;26.77;15.10;;;;;;;;;;2090478;28;20025;-64
2023/11/22 07:42:16;;;;;;;23.55;14.90;;;;;;;;;;2093484;28;20068;-65
2023/11/22 07:43:36;;;;;;;26.70;15.05;;;;;;;;;;2095086;28;20033;-65
2023/11/22 07:44:56;;;;;;;25.13;15.68;;;;;;;;;;2093908;28;21523;-65
2023/11/22 07:46:16;;;;;;;23.35;15.73;;;;;;;;;;2093823;28;20146;-64
2023/11/22 07:47:35;;;;;;;23.50;15.30;;;;;;;;;;2095920;28;20127;-65
2023/11/22 07:48:55;;;;;;;27.02;15.30;;;;;;;;;;2095634;28;20036;-65
2023/11/22 07:50:14;;;;;;;24.95;15.13;;;;;;;;;;2093144;28;20028;-65
2023/11/22 07:51:33;;;;;;;23.33;15.68;;;;;;;;;;2095499;28;20104;-66
2023/11/22 07:52:52;;;;;;;24.92;15.73;;;;;;;;;;2095459;28;20397;-64
2023/11/22 07:54:15;;;;;;;25.80;16.27;;;;;;;;;;2096269;28;20112;-65